Time;durP1;ratioP1;P1;durP2;ratioP2;P2;SDS_P1;SDS_P2;PMS_P1;PMS_P2;Temp;Humidity;BMP_temperature;BMP_pressure;BME280_temperature;BME280_humidity;BME280_pressure;Samples;Min_cycle;Max_cycle;Signal;HPM_P1;HPM_P2
2021/09/01 00:00:45;;;;;;;16.93;7.43;;;;;;;;;;5012081;28;20406;-47
2021/09/01 00:03:11;;;;;;;15.00;5.90;;;;;;;;;;5012660;28;20432;-49
2021/09/01 00:05:37;;;;;;;15.93;5.93;;;;;;;;;;5012993;28;20404;-50
2021/09/01 00:08:03;;;;;;;12.00;5.77;;;;;;;;;;5012725;28;20403;-50
2021/09/01 00:10:29;;;;;;;12.20;6.60;;;;;;;;;;5012729;28;20415;-50
2021/09/01 00:12:55;;;;;;;12.07;6.80;;;;;;;;;;5012339;28;20403;-50
2021/09/01 00:15:21;;;;;;;15.40;6.13;;;;;;;;;;5011595;28;20408;-48
2021/09/01 00:17:47;;;;;;;13.50;6.33;;;;;;;;;;5012384;28;20415;-49
2021/09/01 00:20:13;;;;;;;14.00;6.87;;;;;;;;;;5012572;28;20400;-49
2021/09/01 00:22:39;;;;;;;12.60;6.27;;;;;;;;;;5012311;28;20413;-49
2021/09/01 00:25:06;;;;;;;15.20;6.60;;;;;;;;;;5012535;28;20406;-47
2021/09/01 00:27:32;;;;;;;15.33;6.67;;;;;;;;;;5011555;28;20447;-48
2021/09/01 00:29:58;;;;;;;14.00;6.80;;;;;;;;;;5012567;28;20742;-49
2021/09/01 00:32:24;;;;;;;12.33;6.27;;;;;;;;;;5012075;28;20467;-50
2021/09/01 00:34:50;;;;;;;14.67;6.90;;;;;;;;;;5012435;28;20441;-50
2021/09/01 00:37:16;;;;;;;14.23;5.97;;;;;;;;;;5012264;28;20397;-50
2021/09/01 00:39:42;;;;;;;18.23;5.93;;;;;;;;;;5012297;28;20374;-49
2021/09/01 00:42:09;;;;;;;11.83;6.60;;;;;;;;;;5011982;28;20378;-49
2021/09/01 00:44:36;;;;;;;12.90;6.47;;;;;;;;;;5012314;28;20892;-49
2021/09/01 00:47:03;;;;;;;14.10;7.00;;;;;;;;;;5012098;28;20411;-50
2021/09/01 00:49:29;;;;;;;13.77;6.57;;;;;;;;;;5012235;28;20377;-49
2021/09/01 00:51:56;;;;;;;16.93;7.00;;;;;;;;;;5011892;28;20382;-49
2021/09/01 00:54:23;;;;;;;10.10;6.63;;;;;;;;;;5012036;28;20467;-50
2021/09/01 00:56:52;;;;;;;14.93;7.20;;;;;;;;;;5012057;28;20370;-49
2021/09/01 00:59:19;;;;;;;12.90;6.73;;;;;;;;;;5010906;28;20419;-49
2021/09/01 01:01:45;;;;;;;19.03;6.53;;;;;;;;;;5011864;28;20456;-50
2021/09/01 01:04:12;;;;;;;14.33;6.63;;;;;;;;;;5012135;28;20382;-48
2021/09/01 01:06:38;;;;;;;13.10;6.40;;;;;;;;;;5012104;28;20385;-49
2021/09/01 01:09:03;;;;;;;11.27;6.10;;;;;;;;;;5011975;28;20378;-48
2021/09/01 01:11:29;;;;;;;14.00;6.23;;;;;;;;;;5011774;28;20403;-48
2021/09/01 01:13:55;;;;;;;11.70;5.60;;;;;;;;;;5011871;28;20509;-49
2021/09/01 01:16:22;;;;;;;10.53;6.47;;;;;;;;;;5012009;28;20377;-50
2021/09/01 01:18:49;;;;;;;12.20;5.30;;;;;;;;;;5011937;28;20455;-48
2021/09/01 01:21:17;;;;;;;14.23;6.23;;;;;;;;;;5011674;28;20381;-48
2021/09/01 01:23:43;;;;;;;13.23;6.20;;;;;;;;;;5011871;28;20381;-49
2021/09/01 01:26:09;;;;;;;11.10;6.13;;;;;;;;;;5011857;28;20414;-50
2021/09/01 01:28:35;;;;;;;13.00;7.10;;;;;;;;;;5010827;28;20534;-48
2021/09/01 01:31:01;;;;;;;14.43;7.30;;;;;;;;;;5012881;28;20427;-48
2021/09/01 01:33:27;;;;;;;13.10;7.13;;;;;;;;;;5015637;28;20476;-47
2021/09/01 01:35:53;;;;;;;12.67;5.97;;;;;;;;;;5015640;28;20961;-49
2021/09/01 01:38:20;;;;;;;14.50;5.73;;;;;;;;;;5015486;28;20399;-50
2021/09/01 01:40:47;;;;;;;11.70;6.00;;;;;;;;;;5015394;28;20403;-49
2021/09/01 01:43:13;;;;;;;7.80;5.67;;;;;;;;;;5015349;28;20479;-50
2021/09/01 01:45:40;;;;;;;12.37;6.77;;;;;;;;;;5015499;28;20382;-50
2021/09/01 01:48:07;;;;;;;11.30;6.23;;;;;;;;;;5015397;28;20424;-49
2021/09/01 01:50:34;;;;;;;12.67;5.93;;;;;;;;;;5015355;28;20833;-50
2021/09/01 01:53:00;;;;;;;9.40;5.67;;;;;;;;;;5014995;28;20374;-50
2021/09/01 01:55:26;;;;;;;8.37;5.20;;;;;;;;;;5015319;28;20391;-50
2021/09/01 01:57:52;;;;;;;11.57;6.27;;;;;;;;;;5014963;28;20569;-50
2021/09/01 02:00:18;;;;;;;8.90;6.53;;;;;;;;;;5014160;28;20442;-48
2021/09/01 02:02:44;;;;;;;8.37;5.00;;;;;;;;;;5014887;28;20374;-50
2021/09/01 02:05:11;;;;;;;13.33;5.30;;;;;;;;;;5015083;28;20385;-50
2021/09/01 02:07:37;;;;;;;9.27;4.77;;;;;;;;;;5014960;28;20409;-50
2021/09/01 02:10:03;;;;;;;17.03;6.00;;;;;;;;;;5015009;28;20496;-50
2021/09/01 02:12:29;;;;;;;12.20;5.53;;;;;;;;;;5014649;28;21082;-50
2021/09/01 02:14:56;;;;;;;14.43;6.80;;;;;;;;;;5014912;28;20436;-49
2021/09/01 02:17:22;;;;;;;13.23;6.00;;;;;;;;;;5014826;28;20434;-47
2021/09/01 02:19:48;;;;;;;9.17;5.20;;;;;;;;;;5014803;28;20879;-49
2021/09/01 02:22:14;;;;;;;13.63;5.93;;;;;;;;;;5014425;28;20451;-48
2021/09/01 02:24:40;;;;;;;15.40;6.17;;;;;;;;;;5014757;28;20411;-50
2021/09/01 02:27:06;;;;;;;8.60;5.43;;;;;;;;;;5014618;28;20415;-49
2021/09/01 02:29:32;;;;;;;24.37;6.13;;;;;;;;;;5013706;28;20942;-50
2021/09/01 02:31:58;;;;;;;16.23;6.40;;;;;;;;;;5014240;28;20426;-49
2021/09/01 02:34:24;;;;;;;10.83;5.80;;;;;;;;;;5014420;28;20495;-50
2021/09/01 02:36:50;;;;;;;9.77;5.07;;;;;;;;;;5014377;28;20399;-50
2021/09/01 02:39:16;;;;;;;7.43;5.17;;;;;;;;;;5014394;28;20454;-49
2021/09/01 02:41:42;;;;;;;7.13;5.83;;;;;;;;;;5012861;28;20374;-48
2021/09/01 02:44:08;;;;;;;9.33;5.40;;;;;;;;;;5014316;28;20861;-48
2021/09/01 02:46:34;;;;;;;12.80;6.30;;;;;;;;;;5014295;28;20505;-48
2021/09/01 02:49:00;;;;;;;10.10;5.40;;;;;;;;;;5014184;28;20523;-50
2021/09/01 02:51:26;;;;;;;16.17;6.73;;;;;;;;;;5013864;28;20782;-50
2021/09/01 02:53:52;;;;;;;6.43;5.30;;;;;;;;;;5014071;28;20505;-49
2021/09/01 02:56:18;;;;;;;13.43;6.60;;;;;;;;;;5014094;28;20403;-49
2021/09/01 02:58:44;;;;;;;11.10;5.93;;;;;;;;;;5012894;28;20448;-50
2021/09/01 03:01:10;;;;;;;15.10;5.60;;;;;;;;;;5013723;28;20430;-48
2021/09/01 03:03:36;;;;;;;12.30;7.40;;;;;;;;;;5013973;28;20403;-49
2021/09/01 03:06:02;;;;;;;22.83;6.00;;;;;;;;;;5013914;28;20384;-48
2021/09/01 03:08:28;;;;;;;10.57;6.50;;;;;;;;;;5013796;28;20425;-48
2021/09/01 03:10:54;;;;;;;15.07;6.10;;;;;;;;;;5013563;28;20461;-48
2021/09/01 03:13:21;;;;;;;10.27;6.07;;;;;;;;;;5013747;28;20447;-47
2021/09/01 03:15:47;;;;;;;12.00;5.77;;;;;;;;;;5013765;28;20393;-49
2021/09/01 03:18:13;;;;;;;14.67;6.63;;;;;;;;;;5013649;28;20423;-48
2021/09/01 03:20:39;;;;;;;8.73;5.50;;;;;;;;;;5013622;28;20818;-47
2021/09/01 03:23:04;;;;;;;15.07;5.47;;;;;;;;;;5013265;28;20450;-47
2021/09/01 03:25:31;;;;;;;11.37;6.40;;;;;;;;;;5013606;28;20443;-47
2021/09/01 03:27:59;;;;;;;10.93;6.37;;;;;;;;;;5013527;28;20405;-47
2021/09/01 03:30:25;;;;;;;11.73;6.53;;;;;;;;;;5012385;28;20486;-49
2021/09/01 03:32:51;;;;;;;14.70;6.37;;;;;;;;;;5013130;28;20402;-48
2021/09/01 03:35:17;;;;;;;9.60;7.13;;;;;;;;;;5013374;28;20429;-48
2021/09/01 03:37:43;;;;;;;16.33;7.30;;;;;;;;;;5013261;28;20439;-50
2021/09/01 03:40:09;;;;;;;17.23;7.00;;;;;;;;;;5013379;28;20415;-50
2021/09/01 03:42:35;;;;;;;14.27;6.70;;;;;;;;;;5012966;28;20390;-50
2021/09/01 03:45:01;;;;;;;19.03;6.50;;;;;;;;;;5013242;28;20412;-49
2021/09/01 03:47:27;;;;;;;10.57;5.70;;;;;;;;;;5013092;28;20435;-49
2021/09/01 03:49:53;;;;;;;15.00;7.17;;;;;;;;;;5013124;28;20411;-49
2021/09/01 03:52:19;;;;;;;9.80;6.37;;;;;;;;;;5012666;28;20411;-48
2021/09/01 03:54:45;;;;;;;13.50;6.73;;;;;;;;;;5012632;28;20541;-49
2021/09/01 03:57:11;;;;;;;13.37;6.60;;;;;;;;;;5012860;28;20419;-48
2021/09/01 03:59:37;;;;;;;12.43;7.10;;;;;;;;;;5012067;28;20427;-48
2021/09/01 04:02:03;;;;;;;12.53;7.60;;;;;;;;;;5012637;28;20509;-47
2021/09/01 04:04:29;;;;;;;20.30;8.40;;;;;;;;;;5012799;28;20410;-47
2021/09/01 04:06:55;;;;;;;20.77;6.97;;;;;;;;;;5012683;28;20402;-49
2021/09/01 04:09:21;;;;;;;9.83;6.20;;;;;;;;;;5012807;28;20403;-50
2021/09/01 04:11:47;;;;;;;25.90;6.90;;;;;;;;;;5012473;28;20380;-50
2021/09/01 04:14:13;;;;;;;9.70;6.90;;;;;;;;;;5012642;28;20516;-49
2021/09/01 04:16:39;;;;;;;17.60;6.77;;;;;;;;;;5012665;28;20456;-50
2021/09/01 04:19:05;;;;;;;15.30;7.90;;;;;;;;;;5012568;28;20382;-48
2021/09/01 04:21:31;;;;;;;11.33;7.03;;;;;;;;;;5012188;28;20378;-49
2021/09/01 04:23:57;;;;;;;10.77;6.03;;;;;;;;;;5012538;28;20463;-49
2021/09/01 04:26:23;;;;;;;12.33;6.77;;;;;;;;;;5012512;28;20493;-48
2021/09/01 04:28:49;;;;;;;14.27;6.77;;;;;;;;;;5011426;28;20537;-47
2021/09/01 04:31:15;;;;;;;14.53;7.13;;;;;;;;;;5012200;28;20402;-50
2021/09/01 04:33:41;;;;;;;14.97;6.70;;;;;;;;;;5012266;28;20462;-49
2021/09/01 04:36:06;;;;;;;12.50;6.60;;;;;;;;;;5012339;28;20403;-50
2021/09/01 04:38:32;;;;;;;16.30;8.60;;;;;;;;;;5012280;28;20440;-49
2021/09/01 04:40:58;;;;;;;10.83;6.70;;;;;;;;;;5012067;28;20382;-49
2021/09/01 04:43:24;;;;;;;8.77;6.47;;;;;;;;;;5012323;28;20395;-50
2021/09/01 04:45:50;;;;;;;18.93;7.60;;;;;;;;;;5012304;28;20957;-49
2021/09/01 04:48:16;;;;;;;15.20;7.00;;;;;;;;;;5012137;28;20786;-48
2021/09/01 04:50:42;;;;;;;13.07;7.00;;;;;;;;;;5012044;28;20433;-46
2021/09/01 04:53:08;;;;;;;9.30;6.23;;;;;;;;;;5011963;28;20457;-50
2021/09/01 04:55:34;;;;;;;15.97;7.70;;;;;;;;;;5012164;28;20407;-49
2021/09/01 04:58:00;;;;;;;12.67;7.57;;;;;;;;;;5011965;28;20443;-49
2021/09/01 05:00:26;;;;;;;12.70;8.10;;;;;;;;;;5011172;28;20940;-49
2021/09/01 05:02:53;;;;;;;9.43;6.50;;;;;;;;;;5011841;28;20745;-50
2021/09/01 05:05:19;;;;;;;15.60;7.63;;;;;;;;;;5013067;28;20406;-49
2021/09/01 05:07:44;;;;;;;12.93;9.17;;;;;;;;;;5016128;28;20396;-49
2021/09/01 05:10:11;;;;;;;13.93;7.03;;;;;;;;;;5015118;28;20434;-49
2021/09/01 05:12:37;;;;;;;12.87;6.90;;;;;;;;;;5015831;28;20737;-49
2021/09/01 05:15:03;;;;;;;12.93;7.03;;;;;;;;;;5015997;28;20516;-49
2021/09/01 05:17:29;;;;;;;8.73;6.33;;;;;;;;;;5015903;28;20770;-49
2021/09/01 05:19:55;;;;;;;13.50;7.90;;;;;;;;;;5015871;28;20426;-50
2021/09/01 05:22:24;;;;;;;14.40;6.87;;;;;;;;;;5015583;28;20408;-50
2021/09/01 05:24:49;;;;;;;15.10;7.83;;;;;;;;;;5015950;28;20418;-49
2021/09/01 05:27:20;;;;;;;13.93;6.30;;;;;;;;;;5015754;28;20522;-50
2021/09/01 05:29:48;;;;;;;10.20;7.20;;;;;;;;;;5014770;28;20406;-50
2021/09/01 05:32:24;;;;;;;17.93;7.03;;;;;;;;;;5008627;28;20434;-49
2021/09/01 05:34:50;;;;;;;11.67;6.77;;;;;;;;;;5015688;28;20516;-49
2021/09/01 05:37:17;;;;;;;11.47;6.60;;;;;;;;;;5015548;28;20423;-50
2021/09/01 05:39:44;;;;;;;13.70;7.50;;;;;;;;;;5015582;28;20883;-50
2021/09/01 05:42:14;;;;;;;16.77;7.57;;;;;;;;;;4997594;28;20418;-50
2021/09/01 05:44:41;;;;;;;11.03;7.10;;;;;;;;;;5015485;28;20417;-49
2021/09/01 05:47:10;;;;;;;10.27;7.00;;;;;;;;;;5015312;28;20523;-49
2021/09/01 05:49:37;;;;;;;19.40;7.30;;;;;;;;;;5015395;28;20419;-49
2021/09/01 05:52:04;;;;;;;18.50;6.90;;;;;;;;;;5015043;28;20480;-49
2021/09/01 05:54:30;;;;;;;14.83;7.30;;;;;;;;;;5015208;28;20572;-50
2021/09/01 05:57:04;;;;;;;11.10;7.23;;;;;;;;;;5015289;28;21049;-48
2021/09/01 05:59:31;;;;;;;11.73;6.93;;;;;;;;;;5014132;28;20443;-50
2021/09/01 06:02:00;;;;;;;10.77;6.77;;;;;;;;;;5014876;28;20435;-48
2021/09/01 06:04:27;;;;;;;9.40;6.50;;;;;;;;;;5015085;28;20407;-50
2021/09/01 06:06:53;;;;;;;20.37;7.90;;;;;;;;;;5015019;28;20395;-49
2021/09/01 06:09:19;;;;;;;10.33;7.13;;;;;;;;;;5015049;28;20410;-47
2021/09/01 06:11:46;;;;;;;15.20;6.67;;;;;;;;;;5014632;28;20426;-46
2021/09/01 06:14:12;;;;;;;15.10;6.53;;;;;;;;;;5014810;28;20467;-48
2021/09/01 06:16:38;;;;;;;20.70;7.60;;;;;;;;;;5014563;28;20415;-49
2021/09/01 06:19:04;;;;;;;13.00;6.97;;;;;;;;;;5014812;28;20427;-49
2021/09/01 06:21:30;;;;;;;14.53;6.90;;;;;;;;;;5014492;28;20433;-50
2021/09/01 06:23:56;;;;;;;10.63;6.10;;;;;;;;;;5014857;28;20888;-50
2021/09/01 06:26:22;;;;;;;14.87;7.97;;;;;;;;;;5014642;28;20414;-50
2021/09/01 06:28:49;;;;;;;14.70;6.70;;;;;;;;;;5014562;28;20422;-50
2021/09/01 06:31:15;;;;;;;11.23;6.20;;;;;;;;;;5013257;28;20478;-48
2021/09/01 06:33:41;;;;;;;9.47;6.77;;;;;;;;;;5014492;28;20855;-50
2021/09/01 06:36:07;;;;;;;13.50;7.20;;;;;;;;;;5014627;28;20399;-48
2021/09/01 06:38:33;;;;;;;12.53;6.77;;;;;;;;;;5014453;28;20415;-50
2021/09/01 06:40:59;;;;;;;13.40;6.20;;;;;;;;;;4996537;28;20762;-47
2021/09/01 06:43:25;;;;;;;14.60;6.70;;;;;;;;;;5014463;28;20498;-48
2021/09/01 06:45:51;;;;;;;10.10;5.87;;;;;;;;;;5014373;28;20409;-49
2021/09/01 06:48:17;;;;;;;7.50;5.40;;;;;;;;;;5014315;28;20444;-50
2021/09/01 06:50:43;;;;;;;14.50;6.63;;;;;;;;;;5014178;28;20421;-50
2021/09/01 06:53:12;;;;;;;11.70;6.40;;;;;;;;;;5014079;28;20808;-49
2021/09/01 06:55:38;;;;;;;14.53;5.83;;;;;;;;;;5014391;28;20753;-50
2021/09/01 06:58:12;;;;;;;20.83;6.77;;;;;;;;;;5014013;28;20491;-50
2021/09/01 07:00:38;;;;;;;10.87;7.10;;;;;;;;;;5013070;28;20393;-50
2021/09/01 07:03:04;;;;;;;11.73;6.70;;;;;;;;;;5013774;28;20480;-49
2021/09/01 07:05:31;;;;;;;9.87;6.40;;;;;;;;;;5015166;28;20387;-49
2021/09/01 07:07:57;;;;;;;13.63;5.90;;;;;;;;;;5013883;28;20390;-49
2021/09/01 07:10:23;;;;;;;14.80;6.43;;;;;;;;;;5013804;28;20420;-47
2021/09/01 07:12:49;;;;;;;8.97;6.10;;;;;;;;;;5013483;28;20364;-49
2021/09/01 07:15:15;;;;;;;13.33;6.03;;;;;;;;;;5012662;28;20490;-50
2021/09/01 07:17:42;;;;;;;13.90;6.57;;;;;;;;;;5012386;28;20533;-50
2021/09/01 07:20:09;;;;;;;8.83;5.90;;;;;;;;;;5013712;28;20386;-49
2021/09/01 07:22:36;;;;;;;10.63;6.10;;;;;;;;;;5013211;28;20769;-50
2021/09/01 07:25:03;;;;;;;9.87;6.30;;;;;;;;;;5013582;28;20490;-49
2021/09/01 07:27:29;;;;;;;16.00;5.90;;;;;;;;;;5013063;28;20946;-48
2021/09/01 07:29:55;;;;;;;10.77;5.80;;;;;;;;;;5012108;28;20433;-48
2021/09/01 07:32:21;;;;;;;12.90;6.17;;;;;;;;;;5012507;28;20952;-50
2021/09/01 07:34:47;;;;;;;8.80;6.20;;;;;;;;;;5013227;28;20433;-49
2021/09/01 07:37:13;;;;;;;13.93;5.97;;;;;;;;;;5013316;28;20398;-49
2021/09/01 07:39:38;;;;;;;8.60;5.93;;;;;;;;;;5011551;28;20491;-49
2021/09/01 07:42:05;;;;;;;10.57;5.33;;;;;;;;;;5012368;28;20462;-49
2021/09/01 07:44:31;;;;;;;7.67;5.27;;;;;;;;;;4994850;28;20787;-50
2021/09/01 07:46:56;;;;;;;10.33;5.60;;;;;;;;;;5012150;28;20473;-48
2021/09/01 07:49:22;;;;;;;15.13;6.37;;;;;;;;;;5013074;28;20425;-50
2021/09/01 07:51:49;;;;;;;15.23;6.10;;;;;;;;;;5012684;28;20382;-49
2021/09/01 07:54:15;;;;;;;18.73;5.73;;;;;;;;;;5000666;28;20469;-47
2021/09/01 07:56:41;;;;;;;12.63;5.60;;;;;;;;;;5008988;28;20387;-50
2021/09/01 07:59:07;;;;;;;11.20;6.00;;;;;;;;;;4998356;28;20910;-48
2021/09/01 08:01:33;;;;;;;8.03;5.40;;;;;;;;;;4984814;28;20411;-49
2021/09/01 08:03:59;;;;;;;13.97;7.23;;;;;;;;;;5008132;28;20415;-50
2021/09/01 08:06:25;;;;;;;9.97;5.20;;;;;;;;;;4999490;28;20437;-49
2021/09/01 08:08:51;;;;;;;11.63;5.80;;;;;;;;;;5002814;28;20406;-49
2021/09/01 08:11:17;;;;;;;8.83;5.40;;;;;;;;;;5009347;28;20391;-50
2021/09/01 08:13:43;;;;;;;13.93;5.70;;;;;;;;;;4992043;28;20456;-50
2021/09/01 08:16:09;;;;;;;12.70;5.33;;;;;;;;;;5002005;28;20942;-49
2021/09/01 08:18:35;;;;;;;13.43;5.73;;;;;;;;;;5011808;28;20411;-49
2021/09/01 08:21:01;;;;;;;8.43;5.40;;;;;;;;;;5010332;28;20422;-50
2021/09/01 08:23:27;;;;;;;8.17;4.93;;;;;;;;;;4982665;28;20426;-50
2021/09/01 08:25:53;;;;;;;12.27;5.63;;;;;;;;;;5000871;28;20957;-49
2021/09/01 08:28:19;;;;;;;11.10;5.30;;;;;;;;;;5010427;28;20845;-50
2021/09/01 08:30:45;;;;;;;12.43;5.57;;;;;;;;;;5011242;28;20403;-50
2021/09/01 08:33:11;;;;;;;12.57;5.07;;;;;;;;;;5012110;28;20879;-50
2021/09/01 08:35:37;;;;;;;6.87;4.77;;;;;;;;;;5012238;28;20892;-50
2021/09/01 08:38:03;;;;;;;12.50;5.67;;;;;;;;;;5012351;28;20430;-49
2021/09/01 08:40:29;;;;;;;6.83;4.80;;;;;;;;;;5012308;28;20858;-49
2021/09/01 08:42:55;;;;;;;12.03;4.43;;;;;;;;;;5012019;28;20411;-50
2021/09/01 08:45:21;;;;;;;8.90;4.63;;;;;;;;;;5012295;28;20387;-50
2021/09/01 08:47:47;;;;;;;10.03;5.27;;;;;;;;;;5012115;28;20978;-48
2021/09/01 08:50:14;;;;;;;6.63;4.30;;;;;;;;;;5012148;28;20388;-47
2021/09/01 08:52:40;;;;;;;7.60;5.00;;;;;;;;;;5011937;28;20526;-48
2021/09/01 08:55:07;;;;;;;15.47;5.83;;;;;;;;;;5012038;28;20516;-47
2021/09/01 08:57:34;;;;;;;7.63;5.30;;;;;;;;;;5011960;28;20419;-50
2021/09/01 09:00:00;;;;;;;9.20;4.77;;;;;;;;;;5010274;28;20495;-49
2021/09/01 09:02:27;;;;;;;4.53;3.53;;;;;;;;;;5010981;28;20461;-50
2021/09/01 09:04:53;;;;;;;9.53;4.57;;;;;;;;;;5011923;28;20410;-50
2021/09/01 09:07:19;;;;;;;13.17;5.77;;;;;;;;;;5011940;28;20464;-50
2021/09/01 09:09:45;;;;;;;9.80;4.83;;;;;;;;;;4994229;28;20405;-50
2021/09/01 09:12:11;;;;;;;6.00;5.10;;;;;;;;;;5011573;28;20496;-51
2021/09/01 09:14:38;;;;;;;8.10;4.87;;;;;;;;;;5011905;28;20953;-50
2021/09/01 09:17:06;;;;;;;9.40;5.00;;;;;;;;;;5011870;28;20432;-51
2021/09/01 09:19:55;;;;;;;7.33;4.97;;;;;;;;;;5011878;28;20427;-49
2021/09/01 09:22:30;;;;;;;4.93;4.43;;;;;;;;;;5011598;28;20429;-50
2021/09/01 09:25:10;;;;;;;11.13;5.00;;;;;;;;;;5011770;28;20399;-50
2021/09/01 09:27:39;;;;;;;9.67;4.60;;;;;;;;;;5011635;28;20858;-51
2021/09/01 09:30:21;;;;;;;5.17;4.60;;;;;;;;;;5010876;28;20523;-50
2021/09/01 09:32:54;;;;;;;10.70;4.53;;;;;;;;;;5011409;28;20449;-50
2021/09/01 09:35:20;;;;;;;10.33;4.47;;;;;;;;;;5011701;28;20429;-49
2021/09/01 09:37:47;;;;;;;8.80;4.70;;;;;;;;;;5010919;28;21101;-50
2021/09/01 09:40:15;;;;;;;8.30;4.23;;;;;;;;;;5011622;28;20407;-49
2021/09/01 09:42:41;;;;;;;6.53;4.63;;;;;;;;;;5010808;28;20909;-50
2021/09/01 09:45:20;;;;;;;7.67;5.37;;;;;;;;;;5010644;28;20486;-48
2021/09/01 09:47:50;;;;;;;5.93;4.23;;;;;;;;;;5011578;28;20804;-50
2021/09/01 09:50:16;;;;;;;6.10;3.80;;;;;;;;;;5011704;28;20404;-50
2021/09/01 09:52:43;;;;;;;6.47;3.43;;;;;;;;;;4996846;28;20408;-49
2021/09/01 09:55:10;;;;;;;6.30;4.20;;;;;;;;;;5016662;28;20461;-50
2021/09/01 09:57:45;;;;;;;7.63;4.47;;;;;;;;;;5014916;28;20427;-48
2021/09/01 10:00:11;;;;;;;7.57;3.37;;;;;;;;;;5015013;28;20407;-50
2021/09/01 10:02:38;;;;;;;7.03;3.57;;;;;;;;;;5014475;28;20440;-50
2021/09/01 10:05:05;;;;;;;9.00;4.70;;;;;;;;;;5015088;28;20490;-49
2021/09/01 10:07:31;;;;;;;5.80;4.13;;;;;;;;;;5013207;28;20404;-49
2021/09/01 10:09:57;;;;;;;6.87;4.03;;;;;;;;;;5013976;28;20385;-47
2021/09/01 10:12:25;;;;;;;8.20;4.37;;;;;;;;;;4996590;28;20466;-48
2021/09/01 10:14:52;;;;;;;5.30;3.90;;;;;;;;;;5013749;28;20869;-50
2021/09/01 10:17:20;;;;;;;8.37;4.67;;;;;;;;;;5014745;28;20405;-50
2021/09/01 10:19:46;;;;;;;9.80;4.90;;;;;;;;;;5014798;28;20399;-50
2021/09/01 10:22:12;;;;;;;8.37;3.97;;;;;;;;;;5014563;28;20480;-50
2021/09/01 10:24:42;;;;;;;5.37;3.50;;;;;;;;;;5014837;28;20831;-50
2021/09/01 10:27:10;;;;;;;10.30;4.23;;;;;;;;;;5014800;28;20406;-50
2021/09/01 10:29:37;;;;;;;7.30;3.80;;;;;;;;;;5013578;28;20416;-50
2021/09/01 10:32:16;;;;;;;7.20;3.83;;;;;;;;;;5013688;28;20773;-50
2021/09/01 10:34:42;;;;;;;8.30;4.10;;;;;;;;;;5014566;28;20432;-49
2021/09/01 10:37:08;;;;;;;7.87;4.50;;;;;;;;;;5014520;28;20429;-49
2021/09/01 10:39:34;;;;;;;7.97;3.73;;;;;;;;;;5014470;28;20377;-48
2021/09/01 10:42:20;;;;;;;9.83;4.00;;;;;;;;;;5014201;28;20430;-50
2021/09/01 10:44:48;;;;;;;9.60;4.47;;;;;;;;;;4996733;28;20392;-50
2021/09/01 10:47:14;;;;;;;7.70;3.77;;;;;;;;;;5014354;28;20974;-50
2021/09/01 10:49:56;;;;;;;4.33;3.90;;;;;;;;;;5014381;28;20779;-45
2021/09/01 10:52:22;;;;;;;7.53;3.50;;;;;;;;;;5013969;28;20473;-46
2021/09/01 10:54:49;;;;;;;12.37;4.27;;;;;;;;;;5014074;28;20540;-45
2021/09/01 10:57:21;;;;;;;8.97;4.50;;;;;;;;;;5013337;28;20426;-50
2021/09/01 10:59:47;;;;;;;11.73;4.83;;;;;;;;;;5009098;28;20434;-45
2021/09/01 11:02:20;;;;;;;9.03;4.67;;;;;;;;;;5001773;28;20402;-45
2021/09/01 11:04:49;;;;;;;5.00;4.47;;;;;;;;;;5002850;28;20779;-45
2021/09/01 11:07:25;;;;;;;12.13;5.13;;;;;;;;;;5002855;28;20442;-45
2021/09/01 11:09:55;;;;;;;8.10;5.60;;;;;;;;;;5003885;28;20458;-45
2021/09/01 11:12:21;;;;;;;8.90;4.67;;;;;;;;;;5004767;28;20407;-47
2021/09/01 11:14:48;;;;;;;14.23;5.00;;;;;;;;;;5001870;28;20460;-46
2021/09/01 11:17:16;;;;;;;6.00;4.30;;;;;;;;;;5006476;28;21030;-45
2021/09/01 11:19:43;;;;;;;8.47;4.70;;;;;;;;;;5004042;28;20405;-45
2021/09/01 11:22:10;;;;;;;7.60;4.57;;;;;;;;;;5004165;28;20389;-45
2021/09/01 11:25:02;;;;;;;15.40;4.53;;;;;;;;;;5003890;28;20376;-45
2021/09/01 11:27:30;;;;;;;8.63;4.33;;;;;;;;;;5002097;28;20564;-48
2021/09/01 11:30:10;;;;;;;7.47;4.00;;;;;;;;;;5061834;22;20491;-46
2021/09/01 11:32:37;;;;;;;10.90;4.50;;;;;;;;;;5052058;28;20397;-47
2021/09/01 11:35:05;;;;;;;11.87;4.47;;;;;;;;;;5053110;28;20440;-46
2021/09/01 11:37:31;;;;;;;8.00;4.20;;;;;;;;;;5052237;28;20437;-46
2021/09/01 11:39:57;;;;;;;6.37;3.97;;;;;;;;;;5061511;28;20942;-45
2021/09/01 11:42:23;;;;;;;7.93;4.00;;;;;;;;;;5067231;28;20429;-46
2021/09/01 11:44:56;;;;;;;8.37;4.60;;;;;;;;;;5052863;28;20446;-46
2021/09/01 11:47:22;;;;;;;7.27;4.00;;;;;;;;;;5052913;28;20399;-45
2021/09/01 11:49:50;;;;;;;5.73;4.80;;;;;;;;;;5052767;28;20421;-46
2021/09/01 11:52:25;;;;;;;6.90;4.37;;;;;;;;;;5056866;28;20379;-45
2021/09/01 11:54:52;;;;;;;6.93;4.53;;;;;;;;;;5051656;28;20881;-47
2021/09/01 11:57:25;;;;;;;7.37;4.60;;;;;;;;;;5051127;28;20424;-47
2021/09/01 11:59:51;;;;;;;8.03;4.50;;;;;;;;;;5070613;28;20425;-46
2021/09/01 12:02:21;;;;;;;6.93;4.10;;;;;;;;;;5067030;28;20498;-45
2021/09/01 12:04:48;;;;;;;5.77;5.10;;;;;;;;;;5055693;28;20410;-45
2021/09/01 12:07:23;;;;;;;8.03;4.77;;;;;;;;;;5051563;28;20433;-45
2021/09/01 12:09:53;;;;;;;5.33;4.47;;;;;;;;;;5052462;28;20967;-46
2021/09/01 12:12:19;;;;;;;11.07;4.97;;;;;;;;;;5052573;28;20888;-46
2021/09/01 12:14:45;;;;;;;6.83;4.67;;;;;;;;;;5056714;28;20445;-47
2021/09/01 12:17:14;;;;;;;4.77;4.37;;;;;;;;;;5066149;28;20474;-47
2021/09/01 12:19:52;;;;;;;11.67;4.90;;;;;;;;;;5069135;28;20431;-46
2021/09/01 12:22:33;;;;;;;8.00;4.47;;;;;;;;;;5071882;28;20406;-46
2021/09/01 12:25:05;;;;;;;5.60;4.10;;;;;;;;;;5062071;28;20937;-46
2021/09/01 12:27:31;;;;;;;5.87;4.83;;;;;;;;;;5056237;28;20815;-47
2021/09/01 12:29:58;;;;;;;7.30;6.33;;;;;;;;;;5057266;28;20929;-48
2021/09/01 12:32:24;;;;;;;7.27;5.87;;;;;;;;;;5057048;28;20836;-48
2021/09/01 12:34:55;;;;;;;10.00;6.30;;;;;;;;;;5059947;28;20997;-46
2021/09/01 12:37:23;;;;;;;9.27;6.67;;;;;;;;;;5057291;28;20469;-46
2021/09/01 12:39:52;;;;;;;12.33;8.77;;;;;;;;;;5071056;28;20417;-46
2021/09/01 12:42:22;;;;;;;7.10;6.00;;;;;;;;;;5060780;28;20384;-46
2021/09/01 12:44:48;;;;;;;10.13;6.37;;;;;;;;;;5050173;28;20410;-46
2021/09/01 12:47:14;;;;;;;7.40;6.67;;;;;;;;;;5058519;28;20503;-46
2021/09/01 12:49:45;;;;;;;9.40;6.40;;;;;;;;;;5054260;28;20462;-46
2021/09/01 12:52:12;;;;;;;10.57;7.07;;;;;;;;;;5049777;28;20413;-46
2021/09/01 12:54:38;;;;;;;12.80;7.43;;;;;;;;;;5050895;28;20428;-46
2021/09/01 12:57:04;;;;;;;11.60;6.70;;;;;;;;;;5051610;28;20411;-46
2021/09/01 12:59:34;;;;;;;12.97;8.10;;;;;;;;;;5057941;28;20426;-46
2021/09/01 13:02:00;;;;;;;11.03;7.30;;;;;;;;;;5069618;28;20402;-48
2021/09/01 13:04:28;;;;;;;11.20;7.60;;;;;;;;;;5069865;28;20495;-46
2021/09/01 13:06:54;;;;;;;12.63;9.03;;;;;;;;;;5069813;28;20393;-46
2021/09/01 13:09:20;;;;;;;13.73;9.00;;;;;;;;;;5069812;28;20519;-47
2021/09/01 13:11:46;;;;;;;20.87;9.47;;;;;;;;;;5069498;28;20401;-47
2021/09/01 13:14:12;;;;;;;11.40;8.70;;;;;;;;;;5069477;28;20467;-46
2021/09/01 13:16:38;;;;;;;14.27;8.73;;;;;;;;;;5071117;28;20382;-46
2021/09/01 13:19:04;;;;;;;15.87;9.93;;;;;;;;;;5071602;28;20397;-46
2021/09/01 13:21:30;;;;;;;19.20;9.50;;;;;;;;;;5071359;28;20396;-46
2021/09/01 13:23:56;;;;;;;15.43;9.63;;;;;;;;;;5071478;28;20428;-46
2021/09/01 13:26:22;;;;;;;23.23;9.33;;;;;;;;;;5070855;28;20375;-47
2021/09/01 13:28:48;;;;;;;13.67;9.10;;;;;;;;;;5055964;28;20417;-46
2021/09/01 13:31:14;;;;;;;14.53;8.37;;;;;;;;;;5055058;28;20464;-46
2021/09/01 13:33:40;;;;;;;11.27;7.63;;;;;;;;;;5055390;28;20541;-46
2021/09/01 13:36:07;;;;;;;10.90;8.03;;;;;;;;;;5055311;28;20378;-46
2021/09/01 13:38:33;;;;;;;12.90;8.07;;;;;;;;;;5055405;28;20482;-46
2021/09/01 13:40:59;;;;;;;13.10;7.77;;;;;;;;;;5054970;28;20919;-46
2021/09/01 13:43:26;;;;;;;13.37;6.80;;;;;;;;;;5055322;28;20873;-46
2021/09/01 13:45:52;;;;;;;9.90;6.80;;;;;;;;;;5055263;28;20425;-46
2021/09/01 13:48:18;;;;;;;10.47;7.33;;;;;;;;;;5055164;28;20405;-45
2021/09/01 13:50:44;;;;;;;11.80;7.50;;;;;;;;;;5054874;28;20431;-46
2021/09/01 13:53:10;;;;;;;17.23;7.60;;;;;;;;;;5054946;28;20940;-46
2021/09/01 13:55:36;;;;;;;9.20;7.00;;;;;;;;;;5055005;28;20437;-46
2021/09/01 13:58:03;;;;;;;9.13;6.53;;;;;;;;;;5070020;28;20426;-46
2021/09/01 14:00:33;;;;;;;13.67;6.53;;;;;;;;;;5074892;28;20419;-46
2021/09/01 14:03:03;;;;;;;8.20;5.50;;;;;;;;;;5074667;28;20478;-46
2021/09/01 14:05:30;;;;;;;14.20;5.70;;;;;;;;;;5074798;28;20423;-46
2021/09/01 14:07:56;;;;;;;8.03;5.90;;;;;;;;;;5074843;28;20407;-46
2021/09/01 14:10:22;;;;;;;10.10;5.60;;;;;;;;;;5074693;28;20425;-46
2021/09/01 14:12:48;;;;;;;9.00;6.20;;;;;;;;;;5074456;28;20386;-46
2021/09/01 14:15:14;;;;;;;8.17;5.27;;;;;;;;;;5074571;28;20462;-46
2021/09/01 14:17:40;;;;;;;9.43;5.40;;;;;;;;;;5074677;28;20390;-46
2021/09/01 14:20:06;;;;;;;7.30;5.77;;;;;;;;;;5074425;28;20901;-46
2021/09/01 14:22:32;;;;;;;9.10;6.10;;;;;;;;;;5073698;28;20401;-46
2021/09/01 14:24:58;;;;;;;7.43;5.27;;;;;;;;;;5066397;28;20504;-46
2021/09/01 14:27:24;;;;;;;7.53;5.57;;;;;;;;;;5054344;28;20488;-46
2021/09/01 14:29:51;;;;;;;7.93;5.73;;;;;;;;;;5054263;28;20439;-46
2021/09/01 14:32:16;;;;;;;15.73;6.90;;;;;;;;;;5073128;28;20380;-46
2021/09/01 14:34:42;;;;;;;11.57;6.10;;;;;;;;;;5074135;28;20431;-46